Time;durP1;ratioP1;P1;durP2;ratioP2;P2;SDS_P1;SDS_P2;PMS_P1;PMS_P2;Temp;Humidity;BMP_temperature;BMP_pressure;BME280_temperature;BME280_humidity;BME280_pressure;Samples;Min_cycle;Max_cycle;Signal;HPM_P1;HPM_P2
2022/12/23 00:01:03;;;;;;;21.63;16.05;;;7.10;1.00;;;;;;5003393;28;20235;-84
2022/12/23 00:03:46;;;;;;;;;;;;;;;;;;;;;
2022/12/23 00:06:24;;;;;;;24.65;16.80;;;7.00;1.00;;;;;;4994596;28;48209;-85
2022/12/23 00:09:01;;;;;;;21.15;14.60;;;7.00;1.00;;;;;;4979908;28;20263;-86
2022/12/23 00:11:35;;;;;;;25.70;15.52;;;7.00;1.00;;;;;;4980620;28;20269;-87
2022/12/23 00:16:53;;;;;;;21.38;14.73;;;7.00;1.00;;;;;;5002370;28;20243;-86
2022/12/23 00:19:34;;;;;;;22.77;15.60;;;7.00;1.00;;;;;;5003816;28;20222;-85
2022/12/23 00:22:04;;;;;;;23.42;14.90;;;7.10;1.00;;;;;;4992516;28;20243;-86
2022/12/23 00:24:31;;;;;;;22.30;15.75;;;7.20;1.00;;;;;;5028126;28;20257;-82
2022/12/23 00:27:05;;;;;;;26.25;15.15;;;7.10;1.00;;;;;;4998653;28;20255;-83
2022/12/23 00:29:34;;;;;;;23.75;16.52;;;7.10;1.00;;;;;;4983623;28;20318;-89
2022/12/23 00:32:03;;;;;;;21.88;15.15;;;7.10;1.00;;;;;;4988638;28;20257;-85
2022/12/23 00:34:34;;;;;;;20.58;14.20;;;7.20;1.00;;;;;;5014234;28;20704;-86
2022/12/23 00:37:04;;;;;;;26.48;18.15;;;7.20;1.00;;;;;;5001368;28;20299;-86
2022/12/23 00:45:15;;;;;;;21.50;15.63;;;7.30;1.00;;;;;;5020549;28;20264;-86
2022/12/23 00:50:32;;;;;;;21.48;15.52;;;7.30;1.00;;;;;;4996151;28;20322;-86
2022/12/23 00:53:05;;;;;;;20.50;15.07;;;7.20;1.00;;;;;;5019089;28;20298;-84
2022/12/23 00:55:35;;;;;;;21.95;16.80;;;7.30;1.00;;;;;;5005339;28;20238;-84
2022/12/23 00:58:24;;;;;;;24.30;16.40;;;7.30;1.00;;;;;;4979042;28;20297;-84
2022/12/23 01:06:45;;;;;;;22.77;15.52;;;7.30;1.00;;;;;;5015748;28;20235;-85
2022/12/23 01:09:15;;;;;;;24.42;16.23;;;7.40;1.00;;;;;;5026749;28;20243;-85
2022/12/23 01:12:02;;;;;;;26.20;16.05;;;7.50;1.00;;;;;;5003409;28;20257;-85
2022/12/23 01:14:35;;;;;;;27.42;18.30;;;7.40;1.00;;;;;;5019339;28;20797;-85
2022/12/23 01:17:06;;;;;;;28.15;17.48;;;7.30;1.00;;;;;;4990979;28;20262;-83
2022/12/23 01:19:36;;;;;;;24.52;17.15;;;7.20;1.00;;;;;;5026257;28;20289;-86
2022/12/23 01:22:04;;;;;;;24.52;16.92;;;7.10;1.00;;;;;;5006659;28;20321;-85
2022/12/23 01:24:33;;;;;;;22.27;15.02;;;7.10;1.00;;;;;;5016148;28;20942;-84
2022/12/23 01:27:04;;;;;;;24.67;17.30;;;7.00;1.00;;;;;;5020948;28;20238;-84
2022/12/23 01:29:33;;;;;;;22.10;15.10;;;7.00;1.00;;;;;;5018701;28;20319;-82
2022/12/23 01:32:06;;;;;;;23.23;16.05;;;7.00;1.00;;;;;;4992340;28;20247;-85
2022/12/23 01:34:35;;;;;;;21.25;15.32;;;6.90;1.00;;;;;;5011224;28;20243;-85
2022/12/23 01:37:07;;;;;;;21.88;16.02;;;6.90;1.00;;;;;;4995502;28;20242;-86
2022/12/23 01:39:42;;;;;;;20.45;14.75;;;6.90;1.00;;;;;;5005165;28;20505;-85
2022/12/23 01:45:04;;;;;;;21.50;15.30;;;7.00;1.00;;;;;;5027037;28;20615;-88
2022/12/23 01:47:36;;;;;;;24.15;15.43;;;7.00;1.00;;;;;;5002176;28;20244;-84
2022/12/23 01:50:09;;;;;;;23.50;16.10;;;7.00;1.00;;;;;;5007417;28;20266;-86
2022/12/23 01:52:45;;;;;;;24.88;17.05;;;7.00;1.00;;;;;;5021798;28;20250;-84
2022/12/23 01:55:16;;;;;;;26.75;17.80;;;7.00;1.00;;;;;;5002394;28;20313;-86
2022/12/23 01:57:45;;;;;;;23.30;16.23;;;7.00;1.00;;;;;;5007444;28;20230;-86
2022/12/23 02:05:49;;;;;;;21.02;15.77;;;7.00;1.00;;;;;;5012466;28;20235;-86
2022/12/23 02:11:31;;;;;;;23.45;16.00;;;7.10;1.00;;;;;;4990559;28;20233;-86
2022/12/23 02:17:23;;;;;;;25.58;15.93;;;7.10;1.00;;;;;;5009911;28;20238;-85
2022/12/23 02:20:33;;;;;;;25.98;16.13;;;7.00;1.00;;;;;;5003952;28;20337;-87
2022/12/23 02:23:25;;;;;;;26.92;16.83;;;7.10;1.00;;;;;;5000151;28;20785;-87
2022/12/23 02:26:26;;;;;;;26.85;16.67;;;7.00;1.00;;;;;;5010769;28;20576;-88
2022/12/23 02:29:29;;;;;;;22.67;15.73;;;7.00;1.00;;;;;;5014982;28;20242;-85
2022/12/23 02:32:03;;;;;;;24.48;16.15;;;7.00;1.00;;;;;;5020032;28;20250;-87
2022/12/23 02:34:37;;;;;;;25.40;16.08;;;7.00;1.00;;;;;;5029506;28;20726;-87
2022/12/23 02:37:33;;;;;;;27.63;17.50;;;7.00;1.00;;;;;;5014444;28;20245;-87
2022/12/23 02:40:35;;;;;;;24.42;17.17;;;7.10;1.00;;;;;;5023511;28;20259;-88
2022/12/23 02:46:12;;;;;;;26.52;18.20;;;7.20;1.00;;;;;;5026495;28;20246;-85
2022/12/23 02:48:54;;;;;;;26.48;17.67;;;7.20;1.00;;;;;;5032229;28;20241;-84
2022/12/23 02:51:29;;;;;;;28.48;17.67;;;7.20;1.00;;;;;;5036572;28;20321;-85
2022/12/23 02:54:03;;;;;;;26.42;17.63;;;7.10;1.00;;;;;;4983134;28;20250;-84
2022/12/23 02:56:46;;;;;;;26.50;17.40;;;7.10;1.00;;;;;;5004625;28;20253;-84
2022/12/23 02:59:23;;;;;;;24.17;17.25;;;7.10;1.00;;;;;;5033022;28;20309;-86
2022/12/23 03:01:57;;;;;;;27.40;17.90;;;7.10;1.00;;;;;;5008835;28;20238;-86
2022/12/23 03:04:27;;;;;;;28.13;17.60;;;7.10;1.00;;;;;;5002234;28;20263;-87
2022/12/23 03:07:05;;;;;;;26.60;17.88;;;7.10;1.00;;;;;;5005022;28;20247;-84
2022/12/23 03:09:43;;;;;;;25.20;16.83;;;7.10;1.00;;;;;;5027475;28;20238;-85
2022/12/23 03:12:33;;;;;;;24.98;17.02;;;7.20;1.00;;;;;;5035999;28;20234;-86
2022/12/23 03:15:34;;;;;;;25.92;16.95;;;7.20;1.00;;;;;;5038431;28;20266;-85
2022/12/23 03:18:16;;;;;;;26.45;18.85;;;7.20;1.00;;;;;;5019989;28;20238;-85
2022/12/23 03:20:55;;;;;;;29.58;17.52;;;7.00;1.00;;;;;;5034366;28;20686;-84
2022/12/23 03:23:27;;;;;;;26.23;17.42;;;7.00;1.00;;;;;;5037390;28;20312;-85
2022/12/23 03:26:05;;;;;;;29.17;18.58;;;7.10;1.00;;;;;;5035564;28;20238;-85
2022/12/23 03:28:46;;;;;;;34.15;19.73;;;7.20;1.00;;;;;;5034791;28;20238;-84
2022/12/23 03:31:37;;;;;;;31.02;18.65;;;7.10;1.00;;;;;;5035370;28;20977;-84
2022/12/23 03:34:26;;;;;;;27.63;18.38;;;7.00;1.00;;;;;;5016539;28;20302;-86
2022/12/23 03:37:05;;;;;;;26.70;18.85;;;7.00;1.00;;;;;;5027740;28;20269;-84
2022/12/23 03:39:44;;;;;;;33.95;19.52;;;7.00;1.00;;;;;;5029360;28;20230;-85
2022/12/23 03:42:34;;;;;;;27.05;18.35;;;7.10;1.00;;;;;;5022984;28;20234;-84
2022/12/23 03:45:35;;;;;;;30.30;18.25;;;7.10;1.00;;;;;;5031423;28;20273;-86
2022/12/23 03:48:27;;;;;;;31.60;19.77;;;7.10;1.00;;;;;;5019622;28;20229;-85
2022/12/23 03:51:07;;;;;;;32.05;20.60;;;7.00;1.00;;;;;;5031663;28;20246;-84
2022/12/23 03:53:47;;;;;;;27.88;18.23;;;6.90;1.00;;;;;;5037182;28;20344;-85
2022/12/23 03:56:36;;;;;;;26.73;18.00;;;6.90;1.00;;;;;;5035642;28;20265;-85
2022/12/23 03:59:13;;;;;;;31.27;17.85;;;7.00;1.00;;;;;;5032534;28;20238;-84
2022/12/23 04:01:55;;;;;;;27.67;17.42;;;7.00;1.00;;;;;;5010827;28;20242;-84
2022/12/23 04:04:34;;;;;;;28.35;18.45;;;7.00;1.00;;;;;;5031642;28;20261;-84
2022/12/23 04:10:17;;;;;;;28.35;18.73;;;7.00;1.00;;;;;;5033444;28;20227;-85
2022/12/23 04:12:46;;;;;;;33.10;20.10;;;6.90;1.00;;;;;;5030411;28;21159;-84
2022/12/23 04:15:23;;;;;;;35.63;19.35;;;7.00;1.00;;;;;;5029945;28;20313;-85
2022/12/23 04:18:05;;;;;;;29.48;18.95;;;6.90;1.00;;;;;;5016363;28;20327;-85
2022/12/23 04:20:38;;;;;;;30.30;18.52;;;7.00;1.00;;;;;;5031118;28;20242;-86
2022/12/23 04:23:06;;;;;;;40.60;21.38;;;7.00;1.00;;;;;;5005725;28;20241;-84
2022/12/23 04:25:55;;;;;;;37.15;20.92;;;6.90;1.00;;;;;;5012164;28;20783;-85
2022/12/23 04:28:25;;;;;;;35.00;21.35;;;6.90;1.00;;;;;;4998937;28;20242;-84
2022/12/23 04:30:58;;;;;;;38.95;20.98;;;6.90;1.00;;;;;;5025166;28;20298;-84
2022/12/23 04:33:25;;;;;;;38.15;21.95;;;7.00;1.00;;;;;;5036081;28;20242;-84
2022/12/23 04:35:55;;;;;;;34.20;20.92;;;6.90;1.00;;;;;;5036660;28;20983;-85
2022/12/23 04:38:28;;;;;;;34.03;19.40;;;6.90;1.00;;;;;;5037575;28;20261;-84
2022/12/23 04:40:56;;;;;;;32.75;19.90;;;7.00;1.00;;;;;;5034442;28;20238;-85
2022/12/23 04:43:25;;;;;;;34.55;21.58;;;7.10;1.00;;;;;;5031581;28;20336;-85
2022/12/23 04:45:54;;;;;;;35.30;20.65;;;7.10;1.00;;;;;;5039118;28;20242;-84
2022/12/23 04:48:27;;;;;;;31.08;19.60;;;7.10;1.00;;;;;;5018966;28;20238;-84
2022/12/23 04:50:57;;;;;;;28.73;19.75;;;7.10;1.00;;;;;;5027499;28;20288;-84
2022/12/23 04:53:27;;;;;;;31.58;19.50;;;7.20;1.00;;;;;;5036688;28;20232;-85
2022/12/23 04:55:56;;;;;;;34.65;20.25;;;7.20;1.00;;;;;;5030114;28;21243;-84
2022/12/23 04:58:25;;;;;;;32.58;19.45;;;7.20;1.00;;;;;;5032756;28;20229;-85
2022/12/23 05:01:17;;;;;;;39.75;21.58;;;7.10;1.00;;;;;;5027739;28;22023;-86
2022/12/23 05:22:16;;;;;;;35.17;23.92;;;7.10;1.00;;;;;;1462053;26;20240;-85
2022/12/23 05:24:54;;;;;;;31.20;21.63;;;7.10;1.00;;;;;;4965632;28;20239;-85
2022/12/23 05:27:47;;;;;;;30.67;20.27;;;7.20;1.00;;;;;;4970364;28;20249;-85
2022/12/23 05:35:27;;;;;;;30.38;19.70;;;7.20;1.00;;;;;;1402556;26;20254;-85
2022/12/23 05:38:16;;;;;;;34.13;20.38;;;7.30;1.00;;;;;;4964664;28;20325;-82
2022/12/23 05:40:57;;;;;;;30.35;19.98;;;7.30;1.00;;;;;;4953873;28;20233;-87
2022/12/23 05:43:48;;;;;;;33.97;20.33;;;7.20;1.00;;;;;;4953390;28;20244;-85
2022/12/23 05:46:45;;;;;;;28.20;18.77;;;7.30;1.00;;;;;;4957262;28;20260;-88
2022/12/23 05:49:26;;;;;;;34.20;18.75;;;7.40;1.00;;;;;;4958742;28;20233;-85
2022/12/23 05:52:15;;;;;;;28.17;18.20;;;7.30;1.00;;;;;;4956215;28;20292;-89
2022/12/23 05:54:47;;;;;;;27.63;17.23;;;7.40;1.00;;;;;;4937485;28;20240;-84
2022/12/23 06:00:09;;;;;;;30.20;18.17;;;7.40;1.00;;;;;;4932226;28;20244;-85
2022/12/23 06:02:56;;;;;;;26.25;16.55;;;7.40;1.00;;;;;;4952866;28;20292;-85
2022/12/23 06:05:28;;;;;;;30.02;17.65;;;7.40;1.00;;;;;;4932851;28;20235;-84
2022/12/23 06:08:16;;;;;;;28.25;17.55;;;7.40;1.00;;;;;;4956538;28;20288;-90
2022/12/23 06:11:06;;;;;;;32.35;19.42;;;7.40;1.00;;;;;;4970282;28;20942;-84
2022/12/23 06:13:45;;;;;;;31.95;18.48;;;7.40;1.00;;;;;;4970104;28;20240;-85
2022/12/23 06:16:28;;;;;;;;;;;;;;;;;;;;;
2022/12/23 06:19:05;;;;;;;29.48;17.60;;;7.40;1.00;;;;;;4946928;28;38766;-84
2022/12/23 06:21:48;;;;;;;32.33;17.65;;;7.40;1.00;;;;;;4936877;28;20260;-84
2022/12/23 06:24:38;;;;;;;29.27;17.00;;;7.40;1.00;;;;;;4934088;28;20240;-85
2022/12/23 06:27:56;;;;;;;31.80;18.20;;;7.40;1.00;;;;;;4918792;28;20374;-86
2022/12/23 06:35:49;;;;;;;;;;;;;;;;;;;;;
2022/12/23 06:38:43;;;;;;;;;;;;;;;;;;;;;
2022/12/23 06:41:54;;;;;;;;;;;;;;;;;;;;;
2022/12/23 06:44:43;;;;;;;33.70;18.13;;;7.60;1.00;;;;;;4983042;28;50112;-87
2022/12/23 06:47:44;;;;;;;;;;;;;;;;;;;;;
2022/12/23 06:50:30;;;;;;;28.00;17.80;;;7.60;1.00;;;;;;4964505;28;50292;-88
2022/12/23 06:53:21;;;;;;;28.77;18.42;;;7.70;1.00;;;;;;4972429;28;20255;-87
2022/12/23 06:56:02;;;;;;;35.95;18.35;;;7.70;1.00;;;;;;4977353;28;20379;-87
2022/12/23 06:58:32;;;;;;;32.60;19.33;;;7.80;1.00;;;;;;4979888;28;20659;-86
2022/12/23 07:01:23;;;;;;;34.92;18.85;;;7.80;1.00;;;;;;4964483;28;20240;-86
2022/12/23 07:06:41;;;;;;;32.78;20.33;;;7.80;1.00;;;;;;4926764;28;20241;-87
2022/12/23 07:09:21;;;;;;;32.33;20.45;;;7.80;1.00;;;;;;4950813;28;20244;-87
2022/12/23 07:11:53;;;;;;;28.48;18.85;;;7.80;1.00;;;;;;4930063;28;20244;-87
2022/12/23 07:14:23;;;;;;;32.80;20.15;;;7.80;1.00;;;;;;4939387;28;20244;-86
2022/12/23 07:17:32;;;;;;;30.88;19.00;;;7.80;1.00;;;;;;4947363;28;20826;-87
2022/12/23 07:20:23;;;;;;;33.55;20.98;;;8.00;1.00;;;;;;4941337;28;20241;-87
2022/12/23 07:23:04;;;;;;;;;;;;;;;;;;;;;
2022/12/23 07:28:23;;;;;;;32.08;19.30;;;8.00;1.00;;;;;;4977106;28;20270;-86
2022/12/23 07:31:00;;;;;;;31.73;19.30;;;8.00;1.00;;;;;;4961806;28;20235;-87
2022/12/23 07:33:43;;;;;;;36.05;21.25;;;8.10;1.00;;;;;;4990499;28;20246;-87
2022/12/23 07:36:22;;;;;;;30.88;20.00;;;8.10;1.00;;;;;;4985065;28;20300;-87
2022/12/23 07:38:53;;;;;;;34.80;21.08;;;8.10;1.00;;;;;;4965319;28;20254;-87
2022/12/23 07:41:24;;;;;;;31.58;19.35;;;8.20;1.00;;;;;;4968676;28;20241;-86
2022/12/23 07:43:52;;;;;;;34.60;19.90;;;8.20;1.00;;;;;;4991607;28;20987;-85
2022/12/23 07:46:20;;;;;;;28.42;16.58;;;8.30;1.00;;;;;;4984836;28;20239;-87
2022/12/23 07:49:10;;;;;;;24.85;15.30;;;8.20;1.00;;;;;;4984117;28;20234;-87
2022/12/23 07:51:42;;;;;;;27.70;17.15;;;8.30;1.00;;;;;;4988867;28;20250;-83
2022/12/23 07:57:04;;;;;;;30.63;15.63;;;8.30;1.00;;;;;;4978865;28;20252;-86
2022/12/23 07:59:31;;;;;;;24.52;15.57;;;8.30;1.00;;;;;;4986392;28;20236;-86
2022/12/23 08:02:04;;;;;;;22.40;13.15;;;8.20;1.00;;;;;;4983301;28;20311;-86
2022/12/23 08:04:34;;;;;;;22.38;13.35;;;8.20;1.00;;;;;;4992588;28;20242;-85
2022/12/23 08:07:01;;;;;;;22.63;13.43;;;8.20;1.00;;;;;;4989524;28;20360;-85
2022/12/23 08:09:43;;;;;;;22.35;14.00;;;8.20;1.00;;;;;;4993309;28;20238;-83
2022/12/23 08:12:12;;;;;;;20.10;12.80;;;8.10;1.00;;;;;;4991884;28;20224;-87
2022/12/23 08:14:52;;;;;;;20.05;12.27;;;8.10;1.00;;;;;;4985016;28;20240;-83
2022/12/23 08:17:33;;;;;;;28.75;14.50;;;8.10;1.00;;;;;;4986675;28;20223;-84
2022/12/23 08:20:04;;;;;;;23.05;13.13;;;8.20;1.00;;;;;;5003019;28;20291;-84
2022/12/23 08:22:33;;;;;;;22.45;13.60;;;8.10;1.00;;;;;;4996714;28;20248;-86
2022/12/23 08:25:03;;;;;;;23.77;13.30;;;8.20;1.00;;;;;;4991384;28;20243;-86
2022/12/23 08:27:33;;;;;;;25.25;14.00;;;8.10;1.00;;;;;;4988721;28;20440;-85
2022/12/23 08:30:04;;;;;;;29.80;15.77;;;8.10;1.00;;;;;;4989744;28;20306;-84
2022/12/23 08:32:34;;;;;;;24.77;14.63;;;8.20;1.00;;;;;;4992583;28;20220;-85
2022/12/23 08:35:02;;;;;;;30.98;15.40;;;8.20;1.00;;;;;;4981118;28;20462;-84
2022/12/23 08:37:32;;;;;;;23.02;14.65;;;8.20;1.00;;;;;;4998797;28;20246;-88
2022/12/23 08:43:12;;;;;;;23.90;12.97;;;8.20;1.00;;;;;;4912755;28;20609;-87
2022/12/23 08:48:47;;;;;;;;;;;;;;;;;;;;;
2022/12/23 08:57:51;;;;;;;21.07;13.10;;;8.40;1.00;;;;;;4846735;29;20331;-88
2022/12/23 09:00:25;;;;;;;24.10;13.88;;;8.40;1.00;;;;;;4842923;29;21418;-87
2022/12/23 09:03:01;;;;;;;20.77;13.10;;;8.40;1.00;;;;;;4865748;29;20242;-85
2022/12/23 09:05:43;;;;;;;26.40;14.57;;;8.30;1.00;;;;;;4943593;28;20451;-84
2022/12/23 09:08:12;;;;;;;22.03;14.00;;;8.30;1.00;;;;;;4972773;28;20239;-86
2022/12/23 09:24:14;;;;;;;25.15;14.55;;;8.40;1.00;;;;;;5526836;23;20424;-86
2022/12/23 10:53:08;;;;;;;25.17;14.73;;;9.50;1.00;;;;;;1207795;26;20555;-87
2022/12/23 10:55:45;;;;;;;19.90;13.07;;;9.70;1.00;;;;;;4856753;29;20818;-88
2022/12/23 10:58:25;;;;;;;21.57;14.70;;;9.80;1.00;;;;;;4907346;29;21383;-82
2022/12/23 11:00:56;;;;;;;22.60;15.60;;;9.90;1.00;;;;;;4931188;29;20437;-82
2022/12/23 11:03:33;;;;;;;20.73;14.70;;;9.90;1.00;;;;;;4926135;28;20450;-83
2022/12/23 11:06:09;;;;;;;24.90;15.90;;;9.70;1.00;;;;;;4912392;29;20433;-84
2022/12/23 11:08:46;;;;;;;19.83;14.40;;;9.60;1.00;;;;;;4920482;29;20988;-84
2022/12/23 11:11:13;;;;;;;16.73;12.37;;;9.50;1.00;;;;;;4924256;29;20469;-84
2022/12/23 11:13:54;;;;;;;17.00;11.97;;;9.50;1.00;;;;;;4926831;28;20499;-82
2022/12/23 11:16:26;;;;;;;19.30;13.20;;;9.50;1.00;;;;;;4928983;29;20428;-83
2022/12/23 11:19:05;;;;;;;18.40;12.37;;;9.50;1.00;;;;;;4905108;29;20475;-84
2022/12/23 11:21:45;;;;;;;16.00;10.30;;;9.50;1.00;;;;;;4914996;29;20837;-85
2022/12/23 11:24:24;;;;;;;16.90;12.30;;;9.50;1.00;;;;;;4923237;29;20500;-81
2022/12/23 11:27:12;;;;;;;17.03;11.33;;;9.50;1.00;;;;;;4912745;29;20459;-82
2022/12/23 11:29:47;;;;;;;16.40;11.30;;;9.50;1.00;;;;;;4911545;29;20443;-82
2022/12/23 11:32:22;;;;;;;16.90;10.90;;;9.40;1.00;;;;;;4914149;29;21060;-85
2022/12/23 11:34:50;;;;;;;15.63;10.13;;;9.30;1.00;;;;;;4914598;29;21100;-85
2022/12/23 11:38:02;;;;;;;14.13;10.33;;;9.30;1.00;;;;;;4926530;29;20524;-84
2022/12/23 11:40:33;;;;;;;14.47;10.17;;;9.30;1.00;;;;;;4918317;29;21426;-83
2022/12/23 11:43:07;;;;;;;16.27;11.60;;;9.30;1.00;;;;;;4924699;29;20447;-84
2022/12/23 11:45:36;;;;;;;13.10;10.30;;;9.40;1.00;;;;;;4927439;28;20542;-83
2022/12/23 11:48:05;;;;;;;15.53;11.60;;;9.40;1.00;;;;;;4902333;29;20474;-83
2022/12/23 11:50:36;;;;;;;15.90;10.63;;;9.30;1.00;;;;;;4918579;29;20431;-83
2022/12/23 11:53:21;;;;;;;14.30;10.20;;;9.30;1.00;;;;;;4897926;29;20452;-84
2022/12/23 11:56:01;;;;;;;13.15;9.75;;;9.20;1.00;;;;;;4921834;29;20451;-88
2022/12/23 11:58:45;;;;;;;15.20;10.27;;;9.20;1.00;;;;;;4921014;29;20240;-83
2022/12/23 12:01:19;;;;;;;13.20;10.43;;;9.10;1.00;;;;;;4911319;28;20544;-84
2022/12/23 12:03:55;;;;;;;15.37;11.57;;;9.10;1.00;;;;;;4934602;28;20459;-80
2022/12/23 12:06:24;;;;;;;15.23;11.37;;;9.20;1.00;;;;;;4927314;29;20455;-86
2022/12/23 12:09:04;;;;;;;12.43;10.57;;;9.20;1.00;;;;;;4919049;29;20580;-87
2022/12/23 12:11:45;;;;;;;29.23;19.97;;;9.20;1.00;;;;;;4916798;29;20453;-83
2022/12/23 12:14:36;;;;;;;20.30;14.40;;;9.10;1.00;;;;;;4928517;28;20477;-85
2022/12/23 12:17:20;;;;;;;15.67;12.40;;;9.10;1.00;;;;;;4918743;29;20476;-84
2022/12/23 12:20:01;;;;;;;17.43;13.27;;;9.10;1.00;;;;;;4890945;28;20475;-82
2022/12/23 12:22:42;;;;;;;19.52;13.48;;;9.20;1.00;;;;;;4915528;28;20427;-84
2022/12/23 12:25:57;;;;;;;20.10;15.10;;;9.20;1.00;;;;;;4903249;29;20250;-84
2022/12/23 12:28:45;;;;;;;17.83;12.45;;;9.20;1.00;;;;;;4905698;29;20476;-84
2022/12/23 12:31:23;;;;;;;17.13;10.20;;;9.20;1.00;;;;;;4901165;28;20246;-83
2022/12/23 12:34:13;;;;;;;17.27;12.53;;;9.10;1.00;;;;;;4919629;29;20459;-85
2022/12/23 12:37:07;;;;;;;;;;;;;;;;;;;;;
2022/12/23 12:39:43;;;;;;;16.67;11.70;;;9.10;1.00;;;;;;4924475;28;48064;-84
2022/12/23 12:42:44;;;;;;;18.77;12.00;;;9.20;1.00;;;;;;4902500;28;20663;-84
2022/12/23 12:51:43;;;;;;;18.23;12.87;;;9.40;1.00;;;;;;4898539;29;20490;-83
2022/12/23 12:54:21;;;;;;;16.97;11.97;;;9.50;1.00;;;;;;4891159;29;20538;-86
2022/12/23 12:57:02;;;;;;;14.90;10.93;;;9.70;1.00;;;;;;4895827;29;20443;-85
2022/12/23 12:59:42;;;;;;;15.50;11.20;;;9.90;1.00;;;;;;4895212;29;20479;-85
2022/12/23 13:02:44;;;;;;;18.53;14.77;;;9.90;1.00;;;;;;4903579;29;20443;-81
2022/12/23 13:08:40;;;;;;;14.13;10.57;;;10.60;1.00;;;;;;4903387;29;20502;-85
2022/12/23 13:11:16;;;;;;;12.80;10.07;;;11.70;1.00;;;;;;4904750;29;20463;-83
2022/12/23 13:13:56;;;;;;;11.60;9.37;;;12.20;1.00;;;;;;4905804;29;20478;-85
2022/12/23 13:16:38;;;;;;;13.37;9.80;;;11.90;1.00;;;;;;4910600;29;20479;-84
2022/12/23 13:19:18;;;;;;;12.97;9.07;;;11.60;1.00;;;;;;4908166;29;20591;-84
2022/12/23 13:21:55;;;;;;;14.50;9.57;;;11.20;1.00;;;;;;4904780;29;20489;-85
2022/12/23 13:24:33;;;;;;;13.30;9.73;;;10.80;1.00;;;;;;4893337;29;20644;-79
2022/12/23 13:27:12;;;;;;;16.90;10.20;;;10.40;1.00;;;;;;4908256;29;20491;-83
2022/12/23 13:30:04;;;;;;;13.13;9.73;;;10.20;1.00;;;;;;4906022;29;20577;-83
2022/12/23 13:32:52;;;;;;;15.33;10.70;;;10.00;1.00;;;;;;4908209;29;20401;-78
2022/12/23 13:35:47;;;;;;;12.20;9.13;;;9.90;1.00;;;;;;4906969;29;20480;-85
2022/12/23 13:38:32;;;;;;;16.83;12.93;;;9.70;1.00;;;;;;4907660;29;20428;-86
2022/12/23 13:41:12;;;;;;;14.67;9.87;;;9.70;1.00;;;;;;4904060;29;20477;-84
2022/12/23 13:43:47;;;;;;;12.40;9.73;;;9.60;1.00;;;;;;4890476;29;20534;-81
2022/12/23 13:49:56;;;;;;;15.33;10.50;;;9.60;1.00;;;;;;4888655;23;20816;-84
2022/12/23 13:53:01;;;;;;;18.80;12.10;;;9.50;1.00;;;;;;4882874;28;20530;-82
2022/12/23 13:55:55;;;;;;;17.93;11.27;;;9.40;1.00;;;;;;4898009;29;20480;-83
2022/12/23 13:58:30;;;;;;;17.80;11.40;;;9.30;1.00;;;;;;4880171;29;20490;-79
2022/12/23 14:01:07;;;;;;;14.73;11.20;;;9.20;1.00;;;;;;4852836;29;21091;-79
2022/12/23 14:03:40;;;;;;;14.63;10.70;;;9.10;1.00;;;;;;4882693;29;20482;-81
2022/12/23 14:06:43;;;;;;;14.70;11.53;;;9.20;1.00;;;;;;4895983;29;20560;-80
2022/12/23 14:09:17;;;;;;;17.60;12.30;;;9.10;1.00;;;;;;4902743;29;20546;-82
2022/12/23 14:11:45;;;;;;;15.27;10.80;;;9.10;1.00;;;;;;4881673;29;20534;-82
2022/12/23 14:14:28;;;;;;;16.70;11.57;;;9.10;1.00;;;;;;4898263;29;20425;-83
2022/12/23 14:17:11;;;;;;;14.83;11.97;;;9.10;1.00;;;;;;4872156;29;20454;-83
2022/12/23 14:23:12;;;;;;;17.13;12.17;;;9.20;1.00;;;;;;4868633;29;20491;-81
2022/12/23 14:26:05;;;;;;;13.80;10.70;;;9.20;1.00;;;;;;4880716;29;21371;-87
2022/12/23 14:28:48;;;;;;;14.57;10.43;;;9.10;1.00;;;;;;4902823;29;20436;-82
2022/12/23 14:31:31;;;;;;;12.38;10.02;;;9.00;1.00;;;;;;4902725;29;20462;-83
2022/12/23 14:34:07;;;;;;;12.60;9.80;;;9.00;1.00;;;;;;4901610;29;20251;-82
2022/12/23 14:36:37;;;;;;;13.33;10.53;;;9.10;1.00;;;;;;4896317;29;21289;-85
2022/12/23 14:39:31;;;;;;;12.87;9.83;;;9.10;1.00;;;;;;4858740;29;20406;-83
2022/12/23 14:42:03;;;;;;;13.20;9.43;;;9.20;1.00;;;;;;4895519;28;20444;-81
2022/12/23 14:44:52;;;;;;;14.98;11.07;;;9.20;1.00;;;;;;4891940;29;20462;-83
2022/12/23 14:47:34;;;;;;;11.43;9.00;;;9.20;1.00;;;;;;4892095;29;20243;-82
2022/12/23 14:50:34;;;;;;;14.47;10.20;;;9.20;1.00;;;;;;4875963;28;20469;-84
2022/12/23 14:53:28;;;;;;;15.03;10.13;;;9.10;1.00;;;;;;4866182;29;20551;-81
2022/12/23 14:56:33;;;;;;;16.10;11.90;;;9.00;1.00;;;;;;4875486;29;20494;-85
2022/12/23 14:59:16;;;;;;;18.50;12.37;;;9.10;1.00;;;;;;4874358;29;20250;-82
2022/12/23 15:01:54;;;;;;;15.30;12.17;;;9.00;1.00;;;;;;4876595;29;20464;-82
2022/12/23 15:04:32;;;;;;;15.83;12.77;;;9.00;1.00;;;;;;4883210;29;21015;-84
2022/12/23 15:07:07;;;;;;;15.88;12.65;;;9.00;1.00;;;;;;4859171;29;20455;-83
2022/12/23 15:09:48;;;;;;;17.40;13.17;;;9.00;1.00;;;;;;4894244;29;20342;-85
2022/12/23 15:12:29;;;;;;;17.13;12.67;;;8.90;1.00;;;;;;4886348;28;20518;-85
2022/12/23 15:15:05;;;;;;;22.53;16.97;;;8.90;1.00;;;;;;4869814;29;20510;-84
2022/12/23 15:17:35;;;;;;;13.43;10.80;;;9.00;1.00;;;;;;4902708;29;20522;-82
2022/12/23 15:20:16;;;;;;;18.50;13.20;;;9.00;1.00;;;;;;4869277;29;20459;-84
2022/12/23 15:22:49;;;;;;;14.83;11.70;;;8.90;1.00;;;;;;4871089;29;20499;-81
2022/12/23 15:25:28;;;;;;;12.25;10.95;;;8.80;1.00;;;;;;4880269;29;20488;-86
2022/12/23 15:27:57;;;;;;;15.73;11.48;;;8.80;1.00;;;;;;4894057;29;20237;-84
2022/12/23 15:30:34;;;;;;;16.70;12.05;;;8.80;1.00;;;;;;4879284;29;20253;-85
2022/12/23 15:33:09;;;;;;;13.87;11.50;;;8.70;1.00;;;;;;4880202;28;20242;-82
2022/12/23 15:35:46;;;;;;;15.80;12.57;;;8.70;1.00;;;;;;4887970;29;20523;-84
2022/12/23 15:38:17;;;;;;;15.53;12.27;;;8.60;1.00;;;;;;4879253;29;20426;-82
2022/12/23 15:40:58;;;;;;;17.30;12.63;;;8.50;1.00;;;;;;4892161;29;20428;-85
2022/12/23 15:43:25;;;;;;;13.70;11.00;;;8.50;1.00;;;;;;4881223;29;20704;-84
2022/12/23 15:46:08;;;;;;;16.05;12.70;;;8.40;1.00;;;;;;4878693;29;20481;-84
2022/12/23 15:48:48;;;;;;;15.70;12.55;;;8.40;1.00;;;;;;4880463;28;20283;-85
2022/12/23 15:51:24;;;;;;;15.93;12.65;;;8.30;1.00;;;;;;4886446;29;20298;-84
2022/12/23 15:53:56;;;;;;;18.30;13.90;;;8.30;1.00;;;;;;4874643;29;20330;-82
2022/12/23 15:56:28;;;;;;;16.10;13.10;;;8.20;1.00;;;;;;4882679;29;20461;-84
2022/12/23 15:58:56;;;;;;;17.88;12.98;;;8.20;1.00;;;;;;4886464;29;20250;-82
2022/12/23 16:01:35;;;;;;;16.67;12.50;;;8.20;1.00;;;;;;4896330;29;20785;-82
2022/12/23 16:04:15;;;;;;;16.10;12.17;;;8.20;1.00;;;;;;4866835;29;20456;-82
2022/12/23 16:06:55;;;;;;;17.50;13.70;;;8.20;1.00;;;;;;4866982;29;20428;-81
2022/12/23 16:09:47;;;;;;;18.42;14.07;;;8.30;1.00;;;;;;4882629;29;20257;-81
2022/12/23 16:12:25;;;;;;;17.33;13.90;;;8.20;1.00;;;;;;4877439;29;20251;-82
2022/12/23 16:14:56;;;;;;;16.00;12.83;;;8.20;1.00;;;;;;4886668;29;20240;-81
2022/12/23 16:17:34;;;;;;;14.57;12.20;;;8.20;1.00;;;;;;4888060;29;20485;-84
2022/12/23 16:20:21;;;;;;;21.93;15.73;;;8.30;1.00;;;;;;4870781;29;20351;-82
2022/12/23 16:22:51;;;;;;;17.77;14.40;;;8.30;1.00;;;;;;4891707;29;20444;-82
2022/12/23 16:25:24;;;;;;;17.27;14.33;;;8.30;1.00;;;;;;4894903;29;20543;-81
2022/12/23 16:27:56;;;;;;;19.60;16.13;;;8.40;1.00;;;;;;4886943;29;20544;-81
2022/12/23 16:30:31;;;;;;;20.23;15.18;;;8.40;1.00;;;;;;4898849;29;20464;-80
2022/12/23 16:33:06;;;;;;;20.03;17.23;;;8.40;1.00;;;;;;4896966;29;20379;-87
2022/12/23 16:35:36;;;;;;;18.70;16.30;;;8.30;1.00;;;;;;4901550;29;20472;-79
2022/12/23 16:38:17;;;;;;;20.63;16.10;;;8.40;1.00;;;;;;4894602;29;20440;-84
2022/12/23 16:40:48;;;;;;;19.73;15.97;;;8.50;1.00;;;;;;4904487;29;20299;-82
2022/12/23 16:43:17;;;;;;;25.23;17.77;;;8.40;1.00;;;;;;4891888;29;20492;-85
2022/12/23 16:45:50;;;;;;;19.97;15.30;;;8.40;1.00;;;;;;4888137;29;20426;-85
2022/12/23 16:48:27;;;;;;;21.13;15.57;;;8.30;1.00;;;;;;4898187;29;20479;-81
2022/12/23 16:50:57;;;;;;;14.60;13.10;;;8.30;1.00;;;;;;4896958;29;20450;-81
2022/12/23 16:53:27;;;;;;;19.17;13.18;;;8.30;1.00;;;;;;4899037;29;20223;-86
2022/12/23 16:55:55;;;;;;;18.40;13.80;;;8.40;1.00;;;;;;4901349;29;20309;-81
2022/12/23 16:58:26;;;;;;;18.67;13.35;;;8.40;1.00;;;;;;4905600;29;20432;-84
2022/12/23 17:00:53;;;;;;;21.20;15.33;;;8.40;1.00;;;;;;4904925;29;20238;-85
2022/12/23 17:03:34;;;;;;;21.73;15.53;;;8.40;1.00;;;;;;4881413;29;20425;-85
2022/12/23 17:06:17;;;;;;;20.20;13.97;;;8.30;1.00;;;;;;4844632;29;20433;-85
2022/12/23 17:08:48;;;;;;;17.85;14.18;;;8.30;1.00;;;;;;4866060;29;20473;-82
2022/12/23 17:11:17;;;;;;;20.05;16.58;;;8.20;1.00;;;;;;4876886;29;20240;-82
2022/12/23 17:13:46;;;;;;;20.48;16.38;;;8.20;1.00;;;;;;4899766;29;20235;-82
2022/12/23 17:16:38;;;;;;;21.40;16.20;;;8.10;1.00;;;;;;4882985;29;20243;-85
2022/12/23 17:19:10;;;;;;;23.50;18.75;;;8.10;1.00;;;;;;4891271;29;20432;-86
2022/12/23 17:21:46;;;;;;;36.92;30.13;;;8.10;1.00;;;;;;4902265;29;20341;-85
2022/12/23 17:24:28;;;;;;;21.75;16.90;;;8.00;1.00;;;;;;4893969;28;20243;-85